Time;durP1;ratioP1;P1;durP2;ratioP2;P2;SDS_P1;SDS_P2;PMS_P1;PMS_P2;Temp;Humidity;BMP_temperature;BMP_pressure;BME280_temperature;BME280_humidity;BME280_pressure;Samples;Min_cycle;Max_cycle;Signal;HPM_P1;HPM_P2
2020/12/14 00:01:23;;;;;;;11.95;8.50;;;;;;;9.12;54.19;99802.55;1743649;81;21443;-71
2020/12/14 00:03:51;;;;;;;9.78;7.90;;;;;;;9.12;54.17;99807.84;1738671;80;21381;-71
2020/12/14 00:06:19;;;;;;;11.38;9.20;;;;;;;9.12;54.16;99809.99;1768171;79;21188;-72
2020/12/14 00:08:46;;;;;;;10.95;8.28;;;;;;;9.13;54.15;99812.14;1761755;80;21209;-72
2020/12/14 00:11:13;;;;;;;11.53;8.70;;;;;;;9.13;54.13;99808.16;1788793;79;21826;-72
2020/12/14 00:13:40;;;;;;;10.43;8.25;;;;;;;9.11;54.11;99809.64;1788842;79;21146;-71
2020/12/14 00:16:08;;;;;;;9.45;7.90;;;;;;;9.12;54.09;99811.31;1788490;80;21490;-72
2020/12/14 00:18:36;;;;;;;10.35;7.67;;;;;;;9.11;54.08;99809.64;1753619;80;21216;-72
2020/12/14 00:21:03;;;;;;;11.20;8.03;;;;;;;9.06;54.06;99798.70;1784053;80;21429;-70
2020/12/14 00:23:31;;;;;;;9.75;8.03;;;;;;;9.10;54.07;99805.34;1778949;80;21108;-71
2020/12/14 00:25:58;;;;;;;10.03;8.00;;;;;;;9.11;54.04;99809.64;1786420;79;21188;-72
2020/12/14 00:28:25;;;;;;;9.00;7.47;;;;;;;9.11;54.03;99815.44;1788966;79;21377;-71
2020/12/14 00:30:52;;;;;;;9.08;7.92;;;;;;;9.11;54.03;99816.27;1788823;79;21599;-71
2020/12/14 00:33:20;;;;;;;10.40;8.30;;;;;;;9.11;54.02;99818.09;1788834;79;21170;-70
2020/12/14 00:35:47;;;;;;;9.40;7.37;;;;;;;9.11;53.99;99813.62;1788853;79;21669;-70
2020/12/14 00:38:14;;;;;;;9.93;7.47;;;;;;;9.11;53.99;99807.49;1788764;79;21153;-70
2020/12/14 00:40:41;;;;;;;9.13;7.08;;;;;;;9.11;53.99;99816.27;1782317;80;21365;-71
2020/12/14 00:43:09;;;;;;;9.50;7.40;;;;;;;9.11;53.96;99814.12;1764681;80;21169;-70
2020/12/14 00:45:37;;;;;;;9.10;7.25;;;;;;;9.11;53.95;99817.59;1732290;81;21159;-71
2020/12/14 00:48:05;;;;;;;10.78;7.87;;;;;;;9.06;53.93;99806.65;1753104;81;21150;-73
2020/12/14 00:50:32;;;;;;;10.13;7.62;;;;;;;9.10;53.94;99812.44;1728313;80;21170;-73
2020/12/14 00:53:00;;;;;;;10.08;7.70;;;;;;;9.10;53.92;99812.44;1769661;79;21370;-71
2020/12/14 00:55:27;;;;;;;10.25;7.15;;;;;;;9.09;53.93;99803.67;1732220;81;21551;-72
2020/12/14 00:57:54;;;;;;;8.83;7.35;;;;;;;9.09;53.90;99812.94;1765288;80;21144;-74
2020/12/14 01:00:21;;;;;;;8.73;6.60;;;;;;;9.10;53.89;99817.74;1755249;81;21150;-72
2020/12/14 01:02:49;;;;;;;8.78;6.83;;;;;;;9.08;53.89;99817.07;1761458;79;21168;-72
2020/12/14 01:05:16;;;;;;;9.60;7.37;;;;;;;9.09;53.88;99814.27;1763883;80;21369;-73
2020/12/14 01:07:44;;;;;;;8.53;7.00;;;;;;;9.09;53.85;99811.63;1788927;80;21185;-72
2020/12/14 01:10:11;;;;;;;10.15;7.55;;;;;;;9.09;53.88;99816.09;1787572;78;21118;-72
2020/12/14 01:12:38;;;;;;;8.88;6.87;;;;;;;9.09;53.86;99810.30;1748908;80;21187;-73
2020/12/14 01:15:06;;;;;;;10.58;7.22;;;;;;;9.09;53.87;99810.80;1788685;79;21184;-72
2020/12/14 01:17:33;;;;;;;7.95;7.03;;;;;;;9.09;53.83;99812.13;1765271;79;21401;-74
2020/12/14 01:20:01;;;;;;;8.45;7.25;;;;;;;9.09;53.82;99808.14;1788782;79;21136;-73
2020/12/14 01:22:28;;;;;;;8.45;6.78;;;;;;;9.09;53.83;99798.37;1778031;79;21208;-74
2020/12/14 01:24:56;;;;;;;9.70;7.37;;;;;;;9.09;53.81;99804.99;1788279;80;21149;-72
2020/12/14 01:27:23;;;;;;;8.50;6.60;;;;;;;9.09;53.76;99806.32;1788990;80;21093;-74
2020/12/14 01:29:50;;;;;;;8.20;6.75;;;;;;;9.09;53.78;99808.97;1746710;80;21255;-71
2020/12/14 01:34:44;;;;;;;8.33;6.53;;;;;;;9.13;53.76;99794.91;1763281;79;28629;-73
2020/12/14 01:37:12;;;;;;;9.00;7.08;;;;;;;9.04;53.85;99800.68;1751369;81;21143;-71
2020/12/14 01:39:39;;;;;;;7.20;6.30;;;;;;;9.05;53.82;99796.52;1763146;79;21437;-71
2020/12/14 01:42:06;;;;;;;8.15;6.87;;;;;;;9.07;53.77;99797.70;1745842;81;21174;-71
2020/12/14 01:44:34;;;;;;;7.30;6.55;;;;;;;9.07;53.75;99796.88;1734723;81;21160;-71
2020/12/14 01:47:02;;;;;;;8.88;6.92;;;;;;;9.07;53.76;99792.39;1717737;82;21211;-72
2020/12/14 01:49:30;;;;;;;8.25;6.33;;;;;;;9.07;53.74;99794.22;1714571;82;21255;-73
2020/12/14 01:51:57;;;;;;;7.90;6.40;;;;;;;9.07;53.73;99795.55;1702862;82;21210;-71
2020/12/14 01:54:32;;;;;;;6.42;5.75;;;;;;;9.07;53.70;99795.55;1735373;81;21184;-72
2020/12/14 01:57:01;;;;;;;9.43;7.35;;;;;;;9.07;53.71;99800.84;1725354;81;21180;-71
2020/12/14 01:59:29;;;;;;;7.33;6.50;;;;;;;9.05;53.71;99796.52;1736470;81;21146;-71
2020/12/14 02:01:56;;;;;;;7.58;6.78;;;;;;;9.06;53.73;99798.70;1736045;81;21178;-71
2020/12/14 02:04:23;;;;;;;8.43;6.30;;;;;;;9.05;53.70;99801.82;1726625;82;21380;-71
2020/12/14 02:06:50;;;;;;;7.87;6.70;;;;;;;9.05;53.71;99799.17;1717188;81;21142;-71
2020/12/14 02:09:18;;;;;;;8.13;6.22;;;;;;;9.06;53.68;99798.70;1723833;82;21210;-71
2020/12/14 02:11:45;;;;;;;9.33;6.35;;;;;;;9.05;53.68;99798.34;1701321;82;21167;-71
2020/12/14 02:14:12;;;;;;;7.60;6.78;;;;;;;9.06;53.69;99797.38;1715247;82;21157;-71
2020/12/14 02:16:40;;;;;;;8.03;6.35;;;;;;;9.06;53.67;99806.65;1728909;82;22625;-71
2020/12/14 02:19:07;;;;;;;7.08;6.17;;;;;;;9.06;53.67;99804.00;1729987;81;21216;-71
2020/12/14 02:21:35;;;;;;;8.68;6.70;;;;;;;8.99;53.66;99794.50;1721170;81;21171;-71
2020/12/14 02:24:14;;;;;;;7.35;6.30;;;;;;;9.05;53.66;99807.12;1710715;82;21642;-72
2020/12/14 02:26:41;;;;;;;10.15;7.03;;;;;;;9.05;53.62;99807.12;1734014;81;21108;-72
2020/12/14 02:29:09;;;;;;;8.90;6.22;;;;;;;9.04;53.70;99810.78;1733530;82;21379;-71
2020/12/14 02:31:36;;;;;;;7.17;6.00;;;;;;;9.05;53.67;99811.60;1730390;82;21598;-72
2020/12/14 02:34:03;;;;;;;9.20;6.37;;;;;;;9.05;53.63;99815.58;1716838;82;21929;-72
2020/12/14 02:36:31;;;;;;;9.85;7.05;;;;;;;9.06;53.62;99810.63;1777407;78;21153;-72
2020/12/14 02:38:58;;;;;;;6.85;6.05;;;;;;;9.05;53.61;99811.09;1776481;80;21662;-73
2020/12/14 02:41:25;;;;;;;6.42;5.17;;;;;;;9.05;53.59;99807.12;1781324;80;22190;-71
2020/12/14 02:43:53;;;;;;;7.40;5.97;;;;;;;9.06;53.56;99814.60;1786796;78;21043;-71
2020/12/14 02:46:21;;;;;;;8.08;5.58;;;;;;;9.05;53.56;99806.30;1782562;78;21129;-71
2020/12/14 02:48:48;;;;;;;7.25;6.50;;;;;;;9.05;53.60;99808.95;1781598;80;21177;-71
2020/12/14 02:51:19;;;;;;;8.68;6.85;;;;;;;9.05;53.56;99804.97;1785206;78;21169;-71
2020/12/14 02:53:47;;;;;;;7.45;5.78;;;;;;;9.04;53.55;99805.48;1766517;80;21359;-73
2020/12/14 02:56:16;;;;;;;7.78;5.58;;;;;;;9.05;53.56;99807.62;1727286;82;21153;-72
2020/12/14 02:58:44;;;;;;;6.70;5.67;;;;;;;9.04;53.56;99802.00;1751513;78;21173;-72
2020/12/14 03:01:12;;;;;;;6.55;5.95;;;;;;;9.03;53.57;99802.98;1752930;80;21162;-71
2020/12/14 03:03:39;;;;;;;8.85;6.53;;;;;;;9.02;53.59;99804.80;1785380;78;21175;-71
2020/12/14 03:06:06;;;;;;;7.03;5.90;;;;;;;9.03;53.58;99807.77;1786532;78;21200;-71
2020/12/14 03:08:34;;;;;;;7.62;5.53;;;;;;;9.04;53.58;99804.15;1785353;78;21158;-71
2020/12/14 03:11:01;;;;;;;7.17;5.53;;;;;;;9.03;53.53;99802.47;1786523;80;21133;-71
2020/12/14 03:13:29;;;;;;;7.22;5.45;;;;;;;9.04;53.52;99792.73;1781314;78;21189;-71
2020/12/14 03:15:56;;;;;;;6.17;4.85;;;;;;;9.04;53.54;99793.55;1750170;80;21165;-72
2020/12/14 03:18:24;;;;;;;7.37;5.67;;;;;;;9.05;53.52;99801.00;1779201;80;21323;-73
2020/12/14 03:20:52;;;;;;;7.40;5.62;;;;;;;9.04;53.48;99804.15;1760009;78;21173;-74
2020/12/14 03:23:20;;;;;;;7.28;5.80;;;;;;;9.04;53.48;99801.50;1786522;78;21212;-74
2020/12/14 03:25:48;;;;;;;7.45;5.67;;;;;;;9.05;53.50;99803.65;1784530;78;21831;-74
2020/12/14 03:28:15;;;;;;;7.95;6.30;;;;;;;9.04;53.48;99798.03;1774529;80;21495;-74
2020/12/14 03:30:43;;;;;;;7.15;5.40;;;;;;;9.04;53.48;99798.03;1782346;78;21219;-74
2020/12/14 03:33:10;;;;;;;8.13;5.75;;;;;;;9.03;53.48;99791.88;1769884;80;21204;-73
2020/12/14 03:35:37;;;;;;;7.10;5.30;;;;;;;9.03;53.47;99797.17;1769384;80;21173;-73
2020/12/14 03:38:05;;;;;;;6.95;5.08;;;;;;;9.05;53.46;99802.33;1778773;80;21142;-74
2020/12/14 03:40:32;;;;;;;7.00;5.35;;;;;;;9.04;53.49;99800.17;1774740;80;21364;-74
2020/12/14 03:42:59;;;;;;;6.80;5.62;;;;;;;9.05;53.43;99802.33;1767332;80;21364;-72
2020/12/14 03:45:26;;;;;;;6.10;5.20;;;;;;;9.04;53.44;99802.00;1753814;80;21566;-73
2020/12/14 03:47:54;;;;;;;6.37;5.47;;;;;;;9.04;53.44;99807.30;1743873;80;21132;-73
2020/12/14 03:50:22;;;;;;;7.00;5.45;;;;;;;9.04;53.46;99802.83;1766129;80;21153;-75
2020/12/14 03:52:49;;;;;;;7.95;6.08;;;;;;;9.05;53.43;99803.14;1763912;80;21129;-76
2020/12/14 03:55:17;;;;;;;7.80;5.83;;;;;;;9.05;53.44;99806.30;1750182;80;21358;-76
2020/12/14 03:57:44;;;;;;;6.65;5.33;;;;;;;9.05;53.39;99804.97;1744866;80;21165;-76
2020/12/14 04:00:17;;;;;;;6.75;5.10;;;;;;;9.05;53.39;99810.27;1768906;80;21166;-73
2020/12/14 04:02:44;;;;;;;6.75;5.22;;;;;;;9.04;53.38;99815.25;1785219;79;21159;-74
2020/12/14 04:05:11;;;;;;;7.20;4.97;;;;;;;9.03;53.38;99814.91;1773508;80;21156;-74
2020/12/14 04:07:39;;;;;;;6.28;5.20;;;;;;;9.03;53.39;99810.42;1756477;80;21374;-74
2020/12/14 04:10:06;;;;;;;6.17;4.70;;;;;;;9.04;53.38;99809.95;1768608;79;21203;-74
2020/12/14 04:12:34;;;;;;;5.75;4.95;;;;;;;9.03;53.40;99813.08;1770811;80;21184;-75
2020/12/14 04:15:01;;;;;;;6.75;5.42;;;;;;;9.02;53.40;99809.25;1749528;80;21681;-75
2020/12/14 04:17:28;;;;;;;7.62;5.58;;;;;;;9.04;53.38;99813.42;1755013;79;21159;-75
2020/12/14 04:19:56;;;;;;;6.60;4.92;;;;;;;9.04;53.38;99813.42;1771691;80;21456;-73
2020/12/14 04:22:23;;;;;;;5.80;5.12;;;;;;;9.04;53.37;99812.10;1762807;80;21140;-72
2020/12/14 04:24:51;;;;;;;6.92;5.28;;;;;;;9.05;53.33;99813.75;1769355;80;21122;-73
2020/12/14 04:27:18;;;;;;;6.87;5.12;;;;;;;9.04;53.34;99813.42;1774237;80;21172;-72
2020/12/14 04:29:46;;;;;;;8.45;5.58;;;;;;;9.03;53.35;99818.37;1768616;80;21172;-73
2020/12/14 04:32:13;;;;;;;6.67;5.50;;;;;;;9.04;53.34;99820.55;1768766;80;21356;-72
2020/12/14 04:34:40;;;;;;;9.25;5.85;;;;;;;9.05;53.33;99828.83;1777008;79;21157;-74
2020/12/14 04:37:08;;;;;;;6.70;5.55;;;;;;;9.04;53.34;99822.70;1778946;79;21178;-72
2020/12/14 04:39:35;;;;;;;6.50;5.30;;;;;;;9.04;53.33;99826.67;1755487;80;21608;-73
2020/12/14 04:42:02;;;;;;;6.60;4.62;;;;;;;9.04;53.30;99829.83;1724677;81;21183;-71
2020/12/14 04:44:30;;;;;;;5.28;4.70;;;;;;;9.05;53.30;99832.80;1771716;80;21362;-72
2020/12/14 04:46:58;;;;;;;6.78;5.25;;;;;;;9.04;53.29;99835.13;1727681;81;21191;-73
2020/12/14 04:49:25;;;;;;;6.75;5.25;;;;;;;9.05;53.28;99835.45;1701379;83;21150;-72
2020/12/14 04:51:53;;;;;;;6.28;5.17;;;;;;;9.04;53.29;99831.98;1706312;81;21163;-73
2020/12/14 04:54:20;;;;;;;5.22;4.65;;;;;;;9.05;53.29;99832.80;1773251;79;21129;-73
2020/12/14 04:56:47;;;;;;;6.45;4.55;;;;;;;9.05;53.28;99834.95;1769038;80;21379;-72
2020/12/14 04:59:14;;;;;;;6.72;5.15;;;;;;;9.04;53.26;99844.41;1776122;80;21975;-72
2020/12/14 05:01:42;;;;;;;5.95;5.35;;;;;;;9.04;53.27;99837.78;1776743;79;21141;-72
2020/12/14 05:04:09;;;;;;;6.03;4.97;;;;;;;9.05;53.25;99844.72;1727878;81;21129;-72
2020/12/14 05:06:50;;;;;;;5.45;4.53;;;;;;;9.05;53.26;99848.70;1755566;80;21150;-72
2020/12/14 05:09:20;;;;;;;6.63;5.20;;;;;;;9.05;53.26;99849.52;1779146;79;21191;-72
2020/12/14 05:11:47;;;;;;;8.05;4.60;;;;;;;9.03;53.25;99854.15;1756370;79;21166;-73
2020/12/14 05:14:27;;;;;;;6.65;5.08;;;;;;;9.03;53.29;99862.10;1776468;79;21162;-72
2020/12/14 05:16:54;;;;;;;6.85;5.20;;;;;;;9.03;53.29;99860.77;1770625;80;21634;-72
2020/12/14 05:19:27;;;;;;;5.85;5.03;;;;;;;9.03;53.26;99863.92;1726288;81;21191;-72
2020/12/14 05:24:34;;;;;;;5.80;4.47;;;;;;;9.06;53.24;99853.03;1805838;79;28605;-72
2020/12/14 05:27:01;;;;;;;5.37;4.25;;;;;;;9.02;53.28;99855.16;1798347;79;21119;-72
2020/12/14 05:29:30;;;;;;;6.90;5.03;;;;;;;9.02;53.26;99859.59;1771240;79;21368;-70
2020/12/14 05:32:12;;;;;;;6.40;5.03;;;;;;;9.02;53.25;99856.95;1773752;79;21118;-71
2020/12/14 05:34:41;;;;;;;6.87;5.35;;;;;;;9.02;53.28;99864.42;1781454;79;21210;-71
2020/12/14 05:37:11;;;;;;;6.35;5.12;;;;;;;9.02;53.26;99868.88;1768399;79;21576;-72
2020/12/14 05:39:39;;;;;;;7.87;5.78;;;;;;;9.02;53.26;99871.05;1768474;79;21202;-72
2020/12/14 05:42:19;;;;;;;6.40;5.15;;;;;;;9.01;53.26;99867.22;1778770;79;21407;-72
2020/12/14 05:44:48;;;;;;;6.03;4.75;;;;;;;9.02;53.25;99870.20;1784060;79;21198;-72
2020/12/14 05:47:30;;;;;;;6.45;5.00;;;;;;;9.01;53.26;99872.02;1763328;79;21151;-72
2020/12/14 05:50:00;;;;;;;5.40;4.58;;;;;;;9.00;53.24;99875.68;1784003;79;21182;-73
2020/12/14 05:52:34;;;;;;;6.67;5.00;;;;;;;9.01;53.25;99882.62;1800054;79;21152;-71
2020/12/14 05:55:01;;;;;;;;;;;;;;;9.02;53.25;99887.42;1778376;80;22113;-73
2020/12/14 05:57:36;;;;;;;5.42;4.60;;;;;;;9.01;53.26;99888.42;1768287;80;20242;-72
2020/12/14 06:00:10;;;;;;;6.28;4.87;;;;;;;8.94;53.39;99892.67;1769717;80;21141;-73
2020/12/14 06:02:37;;;;;;;6.40;5.40;;;;;;;8.94;53.37;99896.14;1745603;80;21159;-72
2020/12/14 06:05:06;;;;;;;5.08;4.08;;;;;;;8.95;53.36;99900.97;1783234;80;21207;-72
2020/12/14 06:07:35;;;;;;;5.00;4.15;;;;;;;8.96;53.38;99895.99;1763369;79;21421;-73
2020/12/14 06:10:13;;;;;;;5.85;5.12;;;;;;;8.97;53.32;99899.82;1776228;79;21148;-74
2020/12/14 06:12:47;;;;;;;6.85;4.92;;;;;;;8.98;53.31;99898.84;1780262;80;21182;-73
2020/12/14 06:15:16;;;;;;;5.62;4.55;;;;;;;8.98;53.31;99904.62;1798948;79;21600;-73
2020/12/14 06:20:23;;;;;;;6.50;4.78;;;;;;;9.03;53.31;99910.30;1805721;79;28229;-73
2020/12/14 06:22:53;;;;;;;6.40;5.20;;;;;;;9.00;53.28;99921.20;1777452;80;21221;-72
2020/12/14 06:25:23;;;;;;;6.03;5.33;;;;;;;9.01;53.24;99914.92;1758558;80;21712;-72
2020/12/14 06:27:51;;;;;;;4.97;4.17;;;;;;;9.01;53.22;99922.88;1742885;80;22297;-72
2020/12/14 06:33:12;;;;;;;4.70;4.20;;;;;;;9.06;53.22;99927.23;1766842;78;28226;-73
2020/12/14 06:35:49;;;;;;;6.62;4.87;;;;;;;9.02;53.19;99923.20;1729799;82;21199;-72
2020/12/14 06:38:37;;;;;;;5.92;4.65;;;;;;;9.02;53.18;99927.17;1703780;82;21359;-74
2020/12/14 06:41:15;;;;;;;5.67;4.72;;;;;;;9.01;53.19;99927.67;1750755;81;21191;-73
2020/12/14 06:43:44;;;;;;;5.53;4.33;;;;;;;9.01;53.20;99927.67;1762549;80;21229;-74
2020/12/14 06:46:11;;;;;;;5.35;4.30;;;;;;;9.02;53.20;99917.90;1741223;82;21174;-75
2020/12/14 06:48:46;;;;;;;5.40;4.60;;;;;;;9.01;53.21;99913.59;1745687;81;22100;-74
2020/12/14 06:51:16;;;;;;;5.08;4.40;;;;;;;9.02;53.18;99913.92;1744315;81;21346;-74
2020/12/14 06:53:52;;;;;;;5.97;4.70;;;;;;;9.01;53.19;99903.83;1736193;81;21944;-75
2020/12/14 06:56:41;;;;;;;5.58;4.85;;;;;;;9.01;53.20;99907.80;1747613;81;21150;-74
2020/12/14 06:59:28;;;;;;;5.05;4.55;;;;;;;9.02;53.19;99912.13;1741942;80;21114;-75
2020/12/14 07:02:02;;;;;;;4.55;3.85;;;;;;;9.01;53.20;99914.92;1737011;80;21087;-75
2020/12/14 07:04:36;;;;;;;6.55;4.85;;;;;;;9.01;53.19;99915.75;1735450;81;21344;-74
2020/12/14 07:07:15;;;;;;;6.85;5.45;;;;;;;9.02;53.09;99913.92;1750740;81;21197;-74
2020/12/14 07:09:43;;;;;;;5.45;4.47;;;;;;;9.02;53.09;99913.92;1749461;80;21320;-68
2020/12/14 07:12:19;;;;;;;5.17;4.28;;;;;;;9.02;53.18;99913.45;1738411;81;21143;-70
2020/12/14 07:14:53;;;;;;;6.42;5.03;;;;;;;9.02;53.17;99917.90;1734156;80;21115;-71
2020/12/14 07:17:22;;;;;;;5.78;4.95;;;;;;;9.03;53.15;99920.90;1738287;81;22116;-72
2020/12/14 07:19:58;;;;;;;5.62;4.78;;;;;;;9.04;53.15;99913.30;1735801;80;21179;-70
2020/12/14 07:22:37;;;;;;;5.70;4.37;;;;;;;9.03;53.14;99915.09;1745051;81;21191;-73
2020/12/14 07:25:05;;;;;;;6.80;4.72;;;;;;;9.04;53.11;99918.61;1741798;81;21447;-71
2020/12/14 07:27:33;;;;;;;7.33;5.03;;;;;;;9.05;53.13;99921.58;1729784;80;21155;-72
2020/12/14 07:30:05;;;;;;;6.55;5.05;;;;;;;9.05;53.10;99922.91;1728987;81;21363;-69
2020/12/14 07:32:32;;;;;;;7.40;5.60;;;;;;;9.05;53.09;99925.55;1751320;81;21218;-69
2020/12/14 07:35:00;;;;;;;5.45;4.67;;;;;;;9.06;53.08;99931.20;1752044;81;21157;-70
2020/12/14 07:37:28;;;;;;;5.45;4.60;;;;;;;9.08;53.08;99938.52;1735249;80;21155;-73
2020/12/14 07:39:55;;;;;;;6.45;4.92;;;;;;;9.08;53.07;99939.83;1739663;81;21155;-73
2020/12/14 07:42:32;;;;;;;5.65;4.75;;;;;;;9.09;53.03;99945.95;1755059;81;21401;-72
2020/12/14 07:45:18;;;;;;;6.78;5.03;;;;;;;9.10;53.03;99951.58;1789822;79;21173;-71
2020/12/14 07:47:50;;;;;;;5.12;4.62;;;;;;;9.10;53.01;99959.06;1786538;79;21169;-73
2020/12/14 07:50:26;;;;;;;6.92;5.35;;;;;;;9.11;52.99;99962.54;1723856;82;21138;-71
2020/12/14 07:52:54;;;;;;;6.15;5.12;;;;;;;9.09;52.99;99961.86;1745620;81;21181;-70
2020/12/14 07:55:23;;;;;;;5.62;5.12;;;;;;;9.10;52.98;99955.55;1739758;79;21390;-75
2020/12/14 07:57:51;;;;;;;5.65;4.92;;;;;;;9.10;53.01;99951.11;1744684;81;21139;-76
2020/12/14 08:00:26;;;;;;;6.87;5.30;;;;;;;9.11;52.99;99955.91;1739166;81;21143;-77
2020/12/14 08:03:00;;;;;;;5.92;5.12;;;;;;;9.11;52.97;99951.44;1739897;81;21154;-78
2020/12/14 08:05:22;;;;;;;6.83;5.78;;;;;;;9.13;52.95;99957.91;1750145;81;21155;-81
2020/12/14 08:07:55;;;;;;;7.30;5.20;;;;;;;9.12;52.92;99965.05;1740443;81;22540;-79
2020/12/14 08:13:10;;;;;;;7.33;6.12;;;;;;;9.18;52.93;99968.39;1755296;79;28945;-79
2020/12/14 08:15:41;;;;;;;7.33;6.45;;;;;;;9.16;52.90;99964.25;1749842;82;21178;-75
2020/12/14 08:18:09;;;;;;;7.12;5.97;;;;;;;9.15;52.88;99969.20;1750059;81;22102;-81
2020/12/14 08:20:42;;;;;;;6.70;5.90;;;;;;;9.15;52.88;99963.39;1756877;79;21155;-82
2020/12/14 08:23:21;;;;;;;6.90;5.93;;;;;;;9.16;52.86;99961.09;1732233;81;21631;-77
2020/12/14 08:25:50;;;;;;;7.17;5.80;;;;;;;9.18;52.83;99959.62;1747284;81;21186;-75
2020/12/14 08:28:34;;;;;;;7.45;5.85;;;;;;;9.16;52.84;99961.09;1747933;81;21128;-75
2020/12/14 08:31:04;;;;;;;8.63;6.37;;;;;;;9.17;52.84;99961.42;1749140;81;21365;-74
2020/12/14 08:33:33;;;;;;;8.03;6.47;;;;;;;9.17;52.86;99958.77;1740216;79;21143;-74
2020/12/14 08:36:10;;;;;;;7.67;6.33;;;;;;;9.17;52.84;99957.44;1745480;81;21170;-76
2020/12/14 08:38:37;;;;;;;7.00;6.30;;;;;;;9.17;52.79;99951.31;1747492;81;21607;-73
2020/12/14 08:41:05;;;;;;;6.33;5.60;;;;;;;9.19;52.79;99950.20;1761474;81;22457;-75
2020/12/14 08:43:34;;;;;;;9.18;7.25;;;;;;;9.18;52.82;99944.55;1743225;79;22066;-79
2020/12/14 08:46:16;;;;;;;7.17;6.17;;;;;;;9.19;52.79;99943.57;1798543;79;21188;-79
2020/12/14 08:48:54;;;;;;;8.60;6.60;;;;;;;9.20;52.78;99942.56;1769302;79;21126;-77
2020/12/14 08:51:31;;;;;;;7.85;7.05;;;;;;;9.20;52.78;99939.92;1766270;79;21158;-72
2020/12/14 08:54:12;;;;;;;8.50;6.42;;;;;;;9.21;52.79;99940.73;1792002;79;21149;-71
2020/12/14 08:56:41;;;;;;;8.35;7.45;;;;;;;9.21;52.78;99944.25;1800237;79;21277;-74
2020/12/14 08:59:16;;;;;;;8.50;7.12;;;;;;;9.21;52.78;99937.62;1811404;79;21589;-73
2020/12/14 09:02:00;;;;;;;8.10;7.20;;;;;;;9.22;52.77;99941.09;1806164;79;21174;-74
2020/12/14 09:04:35;;;;;;;7.95;7.15;;;;;;;9.22;52.75;99940.59;1812119;79;21130;-73
2020/12/14 09:07:02;;;;;;;;;;;;;;;9.23;52.77;99929.48;1783279;79;21157;-74
2020/12/14 09:09:33;;;;;;;8.03;6.50;;;;;;;9.23;52.78;99924.19;1773989;79;21197;-75
2020/12/14 09:12:00;;;;;;;8.35;6.28;;;;;;;9.17;52.86;99920.83;1761420;77;21192;-74
2020/12/14 09:14:31;;;;;;;8.70;7.33;;;;;;;9.18;52.84;99913.23;1764447;79;21154;-80
2020/12/14 09:17:14;;;;;;;8.75;7.53;;;;;;;9.20;52.84;99910.76;1772271;79;21161;-77
2020/12/14 09:19:53;;;;;;;9.25;7.22;;;;;;;9.22;52.81;99907.45;1760945;80;21595;-76
2020/12/14 09:22:27;;;;;;;8.95;7.50;;;;;;;9.23;52.81;99903.84;1753105;80;21383;-75
2020/12/14 09:24:55;;;;;;;7.97;7.05;;;;;;;9.24;52.77;99907.31;1752756;80;21194;-75
2020/12/14 09:27:23;;;;;;;8.15;6.97;;;;;;;9.24;52.76;99910.78;1759066;79;21406;-77
2020/12/14 09:29:50;;;;;;;9.18;7.87;;;;;;;9.27;52.76;99909.63;1761831;80;21137;-75
2020/12/14 09:32:18;;;;;;;8.93;7.90;;;;;;;9.27;52.76;99912.28;1766546;80;21581;-71
2020/12/14 09:34:45;;;;;;;10.08;8.13;;;;;;;9.29;52.75;99910.80;1777142;79;21806;-75
2020/12/14 09:37:13;;;;;;;9.85;7.87;;;;;;;9.30;52.72;99914.63;1753854;80;21207;-76
2020/12/14 09:39:41;;;;;;;11.20;8.20;;;;;;;9.32;52.67;99917.13;1758194;80;21190;-75
2020/12/14 09:42:08;;;;;;;8.95;7.83;;;;;;;9.32;52.67;99924.59;1771477;80;21687;-72
2020/12/14 09:44:35;;;;;;;8.68;7.45;;;;;;;9.33;52.64;99927.59;1764791;80;21102;-73
2020/12/14 09:47:04;;;;;;;9.08;8.13;;;;;;;9.34;52.64;99931.89;1767040;79;21393;-73
2020/12/14 09:49:32;;;;;;;10.72;8.35;;;;;;;9.35;52.57;99928.27;1765836;80;21138;-75
2020/12/14 09:51:59;;;;;;;8.90;8.00;;;;;;;9.35;52.57;99930.92;1762962;79;21765;-73
2020/12/14 09:54:27;;;;;;;11.63;8.33;;;;;;;9.36;52.59;99941.84;1752395;80;21158;-75
2020/12/14 09:56:56;;;;;;;9.20;8.18;;;;;;;9.32;52.56;99936.52;1760090;79;21394;-75
2020/12/14 09:59:24;;;;;;;11.18;8.28;;;;;;;9.37;52.55;99948.00;1755104;80;22209;-72
2020/12/14 10:01:51;;;;;;;11.05;7.85;;;;;;;9.38;52.53;99947.00;1754922;80;21201;-74
2020/12/14 10:04:19;;;;;;;9.78;7.92;;;;;;;9.39;52.51;99947.35;1760305;80;21174;-72
2020/12/14 10:06:47;;;;;;;9.40;8.33;;;;;;;9.38;52.52;99943.84;1758052;79;21126;-74
2020/12/14 10:09:15;;;;;;;10.18;8.70;;;;;;;9.39;52.51;99952.66;1751296;79;21067;-71
2020/12/14 10:11:43;;;;;;;11.38;9.50;;;;;;;9.40;52.50;99955.63;1758748;80;22253;-72
2020/12/14 10:14:10;;;;;;;9.03;7.70;;;;;;;9.40;52.46;99950.33;1765294;80;21153;-75
2020/12/14 10:16:38;;;;;;;12.18;9.03;;;;;;;9.41;52.49;99946.70;1774983;78;21134;-75
2020/12/14 10:19:07;;;;;;;9.10;8.18;;;;;;;9.42;52.47;99943.05;1782285;78;21097;-71
2020/12/14 10:21:35;;;;;;;10.53;8.93;;;;;;;9.41;52.43;99940.90;1764192;79;21198;-74
2020/12/14 10:24:06;;;;;;;10.38;8.53;;;;;;;9.42;52.43;99938.56;1777814;80;21633;-75
2020/12/14 10:26:36;;;;;;;11.55;9.10;;;;;;;9.43;52.45;99947.37;1776443;80;21157;-73
2020/12/14 10:29:03;;;;;;;10.78;8.53;;;;;;;9.43;52.43;99950.03;1764196;80;21174;-76
2020/12/14 10:31:31;;;;;;;10.10;8.63;;;;;;;9.44;52.42;99951.67;1775709;79;21189;-72
2020/12/14 10:34:00;;;;;;;11.22;8.95;;;;;;;9.45;52.39;99944.08;1774580;79;21213;-75
2020/12/14 10:36:28;;;;;;;10.63;9.35;;;;;;;9.45;52.39;99942.24;1774512;78;21179;-77
2020/12/14 10:38:55;;;;;;;10.20;8.60;;;;;;;9.45;52.37;99942.24;1775671;80;21169;-77
2020/12/14 10:41:22;;;;;;;10.18;9.13;;;;;;;9.47;52.38;99942.09;1774330;78;21138;-77
2020/12/14 10:43:50;;;;;;;10.63;8.90;;;;;;;9.47;52.38;99940.77;1722011;82;21146;-72
2020/12/14 10:46:17;;;;;;;12.53;9.80;;;;;;;9.48;52.38;99941.09;1759125;80;21160;-76
2020/12/14 10:48:45;;;;;;;10.75;9.65;;;;;;;9.48;52.34;99937.11;1761391;80;21348;-76
2020/12/14 10:51:13;;;;;;;11.55;9.78;;;;;;;9.49;52.36;99936.64;1763859;80;21217;-74
2020/12/14 10:53:40;;;;;;;11.05;9.28;;;;;;;9.49;52.38;99948.58;1762218;80;21107;-74
2020/12/14 10:56:15;;;;;;;16.27;11.03;;;;;;;9.49;52.35;99946.75;1775972;79;21126;-69
2020/12/14 10:58:43;;;;;;;14.20;10.70;;;;;;;9.52;58.20;99894.73;1762143;79;21610;-69
2020/12/14 11:01:12;;;;;;;12.43;9.60;;;;;;;9.80;66.41;99898.50;1765349;80;21425;-68
2020/12/14 11:03:39;;;;;;;14.18;10.38;;;;;;;10.28;69.24;99898.34;1757214;80;21194;-69
2020/12/14 11:06:06;;;;;;;12.23;9.38;;;;;;;10.69;70.45;99898.42;1713595;82;21157;-70
2020/12/14 11:08:33;;;;;;;12.98;9.05;;;;;;;11.07;71.17;99893.45;1729133;82;21155;-70
2020/12/14 11:11:00;;;;;;;12.13;9.95;;;;;;;11.50;71.18;99933.12;1739477;82;21465;-75
2020/12/14 11:13:28;;;;;;;10.08;8.65;;;;;;;11.90;69.04;99934.02;1731139;81;21538;-75
2020/12/14 11:15:58;;;;;;;11.95;9.45;;;;;;;12.05;66.10;99937.61;1721891;82;21675;-75
2020/12/14 11:18:25;;;;;;;11.95;9.78;;;;;;;12.11;63.61;99938.28;1721345;81;21199;-73
2020/12/14 11:20:54;;;;;;;11.78;9.95;;;;;;;12.13;61.63;99939.41;1721787;81;21186;-71
2020/12/14 11:23:21;;;;;;;12.23;9.15;;;;;;;12.11;60.48;99932.95;1719343;81;21148;-75
2020/12/14 11:25:50;;;;;;;11.93;9.10;;;;;;;12.09;59.44;99935.44;1727893;82;21174;-73
2020/12/14 11:28:19;;;;;;;11.10;9.53;;;;;;;12.05;58.82;99942.12;1720777;81;21162;-75
2020/12/14 11:30:46;;;;;;;10.82;9.48;;;;;;;11.99;58.57;99941.83;1731584;81;21251;-73
2020/12/14 11:33:14;;;;;;;14.47;10.80;;;;;;;11.93;58.51;99935.83;1707474;83;21481;-71
2020/12/14 11:35:43;;;;;;;12.35;10.05;;;;;;;11.88;58.68;99938.65;1717749;83;21149;-74
2020/12/14 11:38:11;;;;;;;19.50;10.90;;;;;;;11.80;59.07;99937.70;1710833;82;22272;-74
2020/12/14 11:40:39;;;;;;;14.40;10.10;;;;;;;11.76;60.71;99940.85;1729630;81;21210;-74
2020/12/14 11:43:07;;;;;;;15.45;9.58;;;;;;;11.75;59.63;99953.34;1737607;80;21193;-73
2020/12/14 11:45:36;;;;;;;12.45;9.50;;;;;;;11.74;58.87;99953.50;1717359;83;21158;-74
2020/12/14 11:48:03;;;;;;;11.65;9.48;;;;;;;11.70;58.76;99958.33;1722000;81;21081;-73
2020/12/14 11:50:32;;;;;;;19.12;11.93;;;;;;;11.67;59.00;99953.88;1717759;82;21464;-74
2020/12/14 11:52:59;;;;;;;15.43;11.22;;;;;;;11.63;59.55;99952.53;1730102;81;21204;-75
2020/12/14 11:55:28;;;;;;;17.17;11.68;;;;;;;11.57;59.82;99953.55;1739278;81;21603;-73
2020/12/14 11:57:55;;;;;;;13.60;11.30;;;;;;;11.52;59.97;99961.20;1731817;82;21133;-75
2020/12/14 12:00:22;;;;;;;16.02;11.78;;;;;;;11.46;60.09;99960.55;1732956;80;21182;-75
2020/12/14 12:02:50;;;;;;;15.08;11.70;;;;;;;11.41;60.17;99967.72;1720654;82;22253;-73